ADDS METAR Data INFO
IDs: Format: Raw Decoded Include TAF

Data at: 0105 UTC 24 Jun 2018

PAGK 240053Z AUTO 03006KT 10SM OVC050 17/07 A2994 RMK AO2 SLP142 T01670067 TSNO
PAGK 232353Z AUTO 00000KT 10SM OVC060 17/06 A2994 RMK AO2 SLP143 T01720061 10178 20128 56013 TSNO
PAGK 232253Z AUTO VRB05KT 10SM SCT047 OVC060 17/06 A2995 RMK AO2 SLP147 T01720061 TSNO
PAGK 232153Z AUTO 00000KT 10SM BKN049 OVC060 16/07 A2997 RMK AO2 SLP152 T01610067 TSNO
PAGK 232053Z AUTO VRB03KT 10SM BKN110 17/07 A2998 RMK AO2 SLP154 T01720072 58015 TSNO
PAGK 231953Z AUTO 11004KT 10SM FEW060 OVC110 15/07 A3000 RMK AO2 SLP161 T01500072 TSNO
PAGK 231853Z AUTO VRB03KT 10SM BKN110 14/07 A3002 RMK AO2 SLP166 T01390067 TSNO
PAGK 231753Z AUTO 00000KT 10SM BKN070 OVC110 13/06 A3003 RMK AO2 SLP170 T01280061 10139 20061 58012 TSNO
PAGK 231653Z AUTO 00000KT 10SM OVC065 11/06 A3005 RMK AO2 SLP178 T01110061 TSNO
PAGK 231553Z AUTO 00000KT 10SM OVC065 09/06 A3006 RMK AO2 SLP182 T00940056 TSNO
PAGK 231453Z AUTO 18003KT 10SM OVC065 08/04 A3007 RMK AO2 SLP184 T00830044 58003 TSNO
PAGK 231353Z AUTO 16004KT 10SM FEW065 07/03 A3007 RMK AO2 SLP187 T00670033 TSNO
PAGK 231253Z AUTO 16004KT 10SM OVC065 07/03 A3008 RMK AO2 SLP188 T00670033 TSNO
PAGK 231153Z AUTO 17005KT 10SM FEW035 07/03 A3008 RMK AO2 SLP189 T00670028 10156 20067 51003 TSNO
PAGK 231053Z AUTO 18005KT 10SM CLR 07/03 A3007 RMK AO2 SLP188 T00720028 TSNO
PAGK 230953Z AUTO 00000KT 10SM BKN070 08/03 A3007 RMK AO2 SLP186 T00830033 TSNO
PAGK 230853Z AUTO 22003KT 10SM FEW070 10/04 A3007 RMK AO2 SLP184 T01000039 401940083 51010 TSNO
PAGK 230753Z AUTO 26003KT 10SM SCT050 BKN065 12/07 A3006 RMK AO2 SLP179 T01220072 TSNO
PAGK 230653Z AUTO 00000KT 10SM BKN060 OVC075 14/07 A3005 RMK AO2 SLP175 T01390072 TSNO
PAGK 230553Z AUTO 31006KT 10SM BKN070 16/07 A3004 RMK AO2 SLP170 T01560067 10194 20156 53008 TSNO
PAGK 230453Z AUTO 19008KT 10SM CLR 16/03 A3002 RMK AO2 SLP166 T01560028 TSNO
PAGK 230353Z AUTO 15012KT 10SM CLR 16/03 A3002 RMK AO2 SLP165 T01610028 TSNO
PAGK 230253Z AUTO 18009KT 10SM FEW070 18/03 A3001 RMK AO2 SLP163 T01830033 53005 TSNO
PAGK 230153Z AUTO 17010G19KT 10SM CLR 19/03 A3001 RMK AO2 SLP161 T01890033 TSNO
PAGK 230053Z AUTO 16015KT 10SM BKN090 18/03 A3000 RMK AO2 SLP161 T01830028 TSNO
PAGK 222353Z AUTO 16010KT 10SM FEW070 OVC090 18/03 A3000 RMK AO2 SLP159 60000 T01780033 10183 20144 56005 TSNO
PAGK 222253Z AUTO 17008KT 10SM OVC085 17/03 A3000 RMK AO2 SLP160 T01720033 TSNO
PAGK 222153Z AUTO 00000KT 10SM BKN070 OVC090 17/04 A3001 RMK AO2 RAE35 SLP161 P0000 T01670044 TSNO
PAGK 222053Z AUTO 20005KT 10SM -RA OVC060 15/04 A3001 RMK AO2 RAB31 SLP164 P0000 60000 T01500044 53002 TSNO
PAGK 221953Z AUTO 15007G16KT 10SM BKN065 OVC090 16/04 A3000 RMK AO2 SLP160 T01610039 TSNO
PAGK 221853Z AUTO 14011KT 10SM FEW060 OVC095 16/04 A3001 RMK AO2 SLP160 T01560044 TSNO
PAGK 221753Z AUTO 16014G20KT 10SM OVC090 14/04 A3001 RMK AO2 SLP160 T01440044 10144 20083 53007 TSNO
PAGK 221653Z AUTO 17013G22KT 10SM OVC090 13/05 A3000 RMK AO2 SLP157 T01330050 TSNO
PAGK 221553Z AUTO 17015G21KT 10SM SCT095 13/06 A2999 RMK AO2 SLP152 T01280056 TSNO
PAGK 221453Z AUTO 17009KT 10SM FEW100 11/05 A2998 RMK AO2 SLP154 T01060050 51013 TSNO
PAGK 221353Z AUTO 17009KT 10SM CLR 10/05 A2997 RMK AO2 SLP150 T01000050 TSNO